Mercer County Airport
KBLF : now visible

Airfield :











YOU CAN JOIN US ON...

 
LOGIN :

Register | Disclaimer

   EN    FR    IT 

 









Legend :    VFR   Marginal VFR   IFR   Intensive IFR   Very Intensive IFR
Visi :
Ceiling :
>= 8 km
>= 3000ft
5 to 8 km
1000 to 3000 ft
1500m to 5 km
500 to 1000 ft
800 to 1500m
200 to 500 ft
< 800m
< 200 ft
Symbols :   Thunderstorms  Fog  Heavy snow  Heavy precipitations  Wind > 20 kt






- Airport Elevation : 2857 ft
- IATA code : BLF


KBLF - Mercer County

CURRENT METAR :
  • 261152Z AUTO 27004KT 10SM OVC004 09/09 A3017 RMK AO2 SLP205 T00940089 10111 20094 53013

EXPIRED METARs :
  • 261128Z AUTO 10SM BKN004 09/09 A3017 RMK AO2 T00940089
  • 261109Z AUTO 26005KT 10SM SCT006 09/09 A3016 RMK AO2 T00940089
  • 261052Z AUTO 26005KT 10SM BKN007 09/09 A3016 RMK AO2 SLP198 T00940089
  • 261008Z AUTO 28006KT 10SM BKN006 10/09 A3014 RMK AO2 CIG 003V011 T01000094
  • 260952Z AUTO 30004KT 10SM BKN004 OVC009 11/10 A3014 RMK AO2 SLP189 T01060100
  • 260925Z AUTO 27005KT 10SM OVC004 11/10 A3014 RMK AO2 CIG 002V007 T01060100

TAF KBLF
Valid from the 26 at 12:00 until the 27 at 12:00 UTC


261120Z 2612/2712 28007KT P6SM BKN005
FM261400 29008KT P6SM SCT007 BKN015
FM261600 27008G16KT P6SM SCT025 SCT250
FM262300 25006KT P6SM SCT250
KZID FIR / North America



MET'MAP, your aeronautical weather chart ! - Copyright ORBIFLY December 2007 - Disclaimer

ORBIFLY MET'MAP TEAM :

Programming & Development : Alexandra Zaïnal
Concept & original design : Baudouin d'Aumeries
Assistance for programming : Marc-Olivier Méhu
Technical & hardware support : Manuel Goepfert

Contact : metmap@orbifly.com




SOURCES & CREDITS :

   NOAA       Earth
Advisory